Time;durP1;ratioP1;P1;durP2;ratioP2;P2;SDS_P1;SDS_P2;PMS_P1;PMS_P2;Temp;Humidity;BMP_temperature;BMP_pressure;BME280_temperature;BME280_humidity;BME280_pressure;Samples;Min_cycle;Max_cycle;Signal;HPM_P1;HPM_P2
2022/08/10 00:01:45;;;;;;;9.30;8.60;;;;;;;;;;5072638;28;20034;-79
2022/08/10 00:04:11;;;;;;;9.73;8.80;;;;;;;;;;5072395;28;20390;-79
2022/08/10 00:06:38;;;;;;;12.07;9.60;;;;;;;;;;5072093;28;20027;-77
2022/08/10 00:09:04;;;;;;;11.07;9.98;;;;;;;;;;5072545;28;20028;-79
2022/08/10 00:11:30;;;;;;;10.00;9.18;;;;;;;;;;5072245;28;20021;-77
2022/08/10 00:13:56;;;;;;;10.55;9.55;;;;;;;;;;5072439;28;20048;-77
2022/08/10 00:16:22;;;;;;;10.30;9.45;;;;;;;;;;5072212;28;20074;-78
2022/08/10 00:18:48;;;;;;;9.75;8.88;;;;;;;;;;5072225;28;20029;-76
2022/08/10 00:21:15;;;;;;;10.63;9.50;;;;;;;;;;5072436;28;20038;-77
2022/08/10 00:23:41;;;;;;;10.73;9.82;;;;;;;;;;5072212;28;20056;-76
2022/08/10 00:26:07;;;;;;;10.70;9.60;;;;;;;;;;5072240;28;20024;-76
2022/08/10 00:28:34;;;;;;;9.75;8.95;;;;;;;;;;5072140;28;20063;-78
2022/08/10 00:31:00;;;;;;;9.55;8.68;;;;;;;;;;5072192;28;20051;-77
2022/08/10 00:33:26;;;;;;;10.57;9.48;;;;;;;;;;5072407;28;20078;-78
2022/08/10 00:35:52;;;;;;;10.30;9.27;;;;;;;;;;5072068;28;20075;-78
2022/08/10 00:38:18;;;;;;;10.60;9.18;;;;;;;;;;5072374;28;20036;-79
2022/08/10 00:40:45;;;;;;;10.25;9.35;;;;;;;;;;5071848;28;20078;-78
2022/08/10 00:43:11;;;;;;;10.50;9.60;;;;;;;;;;5072216;28;20029;-77
2022/08/10 00:45:38;;;;;;;10.32;9.45;;;;;;;;;;5071940;28;20028;-78
2022/08/10 00:48:04;;;;;;;10.30;9.40;;;;;;;;;;5071744;28;20052;-79
2022/08/10 00:50:30;;;;;;;10.45;9.45;;;;;;;;;;5072076;28;20107;-76
2022/08/10 00:52:56;;;;;;;10.00;9.10;;;;;;;;;;5071822;28;20483;-78
2022/08/10 00:55:23;;;;;;;10.23;9.23;;;;;;;;;;5072118;28;20033;-77
2022/08/10 00:57:49;;;;;;;9.32;8.50;;;;;;;;;;5071685;28;20036;-77
2022/08/10 01:00:15;;;;;;;9.55;8.80;;;;;;;;;;5071949;28;20111;-77
2022/08/10 01:02:41;;;;;;;9.80;8.85;;;;;;;;;;5071638;28;20418;-75
2022/08/10 01:05:13;;;;;;;10.50;9.48;;;;;;;;;;5070710;28;20379;-77
2022/08/10 01:07:56;;;;;;;10.27;9.15;;;;;;;;;;5071749;28;20020;-78
2022/08/10 01:10:41;;;;;;;10.73;9.73;;;;;;;;;;5071674;28;20056;-79
2022/08/10 01:13:11;;;;;;;10.68;9.77;;;;;;;;;;5071638;28;20027;-76
2022/08/10 01:15:41;;;;;;;10.02;9.13;;;;;;;;;;5071933;28;20102;-77
2022/08/10 01:18:26;;;;;;;9.77;8.88;;;;;;;;;;5074270;28;20055;-78
2022/08/10 01:20:58;;;;;;;10.82;9.73;;;;;;;;;;5075475;28;20025;-81
2022/08/10 01:23:36;;;;;;;11.20;10.02;;;;;;;;;;5075645;28;20060;-79
2022/08/10 01:26:05;;;;;;;9.60;8.77;;;;;;;;;;5075612;28;20056;-78
2022/08/10 01:28:50;;;;;;;11.00;10.00;;;;;;;;;;5075428;28;20052;-78
2022/08/10 01:31:21;;;;;;;10.55;9.65;;;;;;;;;;5075454;28;20033;-81
2022/08/10 01:33:52;;;;;;;10.13;9.23;;;;;;;;;;5075470;28;20028;-79
2022/08/10 01:36:19;;;;;;;9.77;9.00;;;;;;;;;;5075014;28;20044;-78
2022/08/10 01:38:48;;;;;;;11.10;10.00;;;;;;;;;;5075432;28;20162;-77
2022/08/10 01:41:24;;;;;;;12.00;10.93;;;;;;;;;;5074898;28;20032;-77
2022/08/10 01:43:56;;;;;;;10.90;10.00;;;;;;;;;;5075297;28;20028;-77
2022/08/10 01:46:23;;;;;;;10.85;9.98;;;;;;;;;;5074810;28;20054;-77
2022/08/10 01:48:50;;;;;;;11.35;10.18;;;;;;;;;;5075203;28;20394;-78
2022/08/10 01:51:19;;;;;;;11.80;10.60;;;;;;;;;;5074818;28;20063;-78
2022/08/10 01:53:54;;;;;;;10.95;9.85;;;;;;;;;;5075167;28;20421;-78
2022/08/10 01:56:21;;;;;;;10.30;9.40;;;;;;;;;;5074954;28;20064;-78
2022/08/10 01:58:48;;;;;;;10.55;9.55;;;;;;;;;;5074862;28;20103;-77
2022/08/10 02:01:16;;;;;;;10.48;9.48;;;;;;;;;;5074823;28;20032;-77
2022/08/10 02:03:43;;;;;;;9.48;8.57;;;;;;;;;;5074761;28;20078;-78
2022/08/10 02:06:12;;;;;;;9.50;8.70;;;;;;;;;;5074328;28;20028;-77
2022/08/10 02:08:38;;;;;;;10.70;9.60;;;;;;;;;;5074931;28;20068;-78
2022/08/10 02:11:05;;;;;;;12.02;10.18;;;;;;;;;;5074317;28;20029;-78
2022/08/10 02:13:32;;;;;;;10.82;9.82;;;;;;;;;;5074893;28;20062;-79
2022/08/10 02:15:58;;;;;;;10.35;9.45;;;;;;;;;;5074409;28;20037;-79
2022/08/10 02:18:25;;;;;;;9.68;8.85;;;;;;;;;;5074528;28;20030;-78
2022/08/10 02:20:52;;;;;;;10.50;9.50;;;;;;;;;;5074498;28;20036;-78
2022/08/10 02:23:25;;;;;;;10.00;9.13;;;;;;;;;;5074448;28;20020;-76
2022/08/10 02:25:53;;;;;;;9.93;9.02;;;;;;;;;;5074354;28;20028;-80
2022/08/10 02:28:20;;;;;;;9.98;9.02;;;;;;;;;;5074086;28;20044;-77
2022/08/10 02:30:46;;;;;;;10.52;9.43;;;;;;;;;;5074314;28;20028;-79
2022/08/10 02:33:13;;;;;;;11.07;9.45;;;;;;;;;;5074100;28;20025;-78
2022/08/10 02:35:40;;;;;;;10.57;9.48;;;;;;;;;;5074250;28;20032;-78
2022/08/10 02:38:09;;;;;;;9.50;8.70;;;;;;;;;;5073943;28;20109;-78
2022/08/10 02:40:45;;;;;;;10.95;9.98;;;;;;;;;;5074408;28;20025;-78
2022/08/10 02:43:19;;;;;;;11.10;10.02;;;;;;;;;;5074003;28;20463;-77
2022/08/10 02:45:47;;;;;;;10.15;9.13;;;;;;;;;;5073564;28;20082;-77
2022/08/10 02:48:21;;;;;;;10.35;9.35;;;;;;;;;;5073695;28;20063;-77
2022/08/10 02:50:58;;;;;;;10.07;9.23;;;;;;;;;;5073822;28;20020;-78
2022/08/10 02:53:27;;;;;;;10.77;9.80;;;;;;;;;;5073502;28;20055;-77
2022/08/10 02:55:59;;;;;;;10.38;9.25;;;;;;;;;;5073924;28;20400;-78
2022/08/10 02:58:45;;;;;;;10.50;9.60;;;;;;;;;;5072299;28;20468;-77
2022/08/10 03:01:13;;;;;;;13.02;9.77;;;;;;;;;;5073475;28;20029;-78
2022/08/10 03:03:58;;;;;;;10.32;9.43;;;;;;;;;;5073798;28;20036;-78
2022/08/10 03:06:26;;;;;;;10.68;9.65;;;;;;;;;;5073669;28;20115;-77
2022/08/10 03:08:52;;;;;;;10.35;9.52;;;;;;;;;;5073382;28;20364;-80
2022/08/10 03:11:24;;;;;;;10.88;9.80;;;;;;;;;;5073573;28;20033;-77
2022/08/10 03:13:51;;;;;;;10.98;9.38;;;;;;;;;;5073116;28;20390;-79
2022/08/10 03:16:18;;;;;;;11.20;10.13;;;;;;;;;;5073404;28;20044;-77
2022/08/10 03:18:45;;;;;;;10.95;10.05;;;;;;;;;;5073139;28;20107;-79
2022/08/10 03:21:11;;;;;;;11.38;9.85;;;;;;;;;;5073341;28;20502;-78
2022/08/10 03:23:38;;;;;;;11.50;10.30;;;;;;;;;;5073342;28;20028;-78
2022/08/10 03:26:05;;;;;;;12.07;10.85;;;;;;;;;;5073158;28;20048;-78
2022/08/10 03:28:31;;;;;;;13.27;10.30;;;;;;;;;;5073377;28;20095;-78
2022/08/10 03:30:58;;;;;;;11.70;10.68;;;;;;;;;;5072893;28;20051;-77
2022/08/10 03:33:26;;;;;;;11.07;10.07;;;;;;;;;;5073133;28;20044;-77
2022/08/10 03:36:03;;;;;;;11.48;10.48;;;;;;;;;;5072806;28;20040;-78
2022/08/10 03:38:29;;;;;;;11.48;10.38;;;;;;;;;;5071744;28;20032;-76
2022/08/10 03:40:57;;;;;;;12.18;11.05;;;;;;;;;;5072126;28;20028;-79
2022/08/10 03:43:24;;;;;;;11.95;10.85;;;;;;;;;;5072812;28;20539;-77
2022/08/10 03:45:52;;;;;;;11.55;10.48;;;;;;;;;;5072571;28;20040;-78
2022/08/10 03:48:19;;;;;;;11.82;10.73;;;;;;;;;;5084610;28;20059;-79
2022/08/10 03:50:46;;;;;;;12.75;11.35;;;;;;;;;;5113228;28;20027;-80
2022/08/10 03:53:13;;;;;;;11.45;10.25;;;;;;;;;;5105893;28;20111;-77
2022/08/10 03:55:39;;;;;;;12.73;11.45;;;;;;;;;;5092718;28;20107;-78
2022/08/10 03:58:05;;;;;;;14.23;12.75;;;;;;;;;;5092910;28;20032;-79
2022/08/10 04:00:34;;;;;;;12.52;11.43;;;;;;;;;;5092873;28;20024;-82
2022/08/10 04:03:03;;;;;;;13.93;12.68;;;;;;;;;;5092777;28;20020;-78
2022/08/10 04:05:30;;;;;;;14.38;12.88;;;;;;;;;;5100383;28;20031;-78
2022/08/10 04:07:56;;;;;;;14.13;12.77;;;;;;;;;;5112923;28;20028;-78
2022/08/10 04:10:22;;;;;;;16.38;14.65;;;;;;;;;;5112833;28;20438;-79
2022/08/10 04:12:48;;;;;;;14.15;12.75;;;;;;;;;;5112599;28;20038;-78
2022/08/10 04:15:15;;;;;;;14.95;13.52;;;;;;;;;;5112753;28;20033;-78
2022/08/10 04:17:41;;;;;;;14.88;13.57;;;;;;;;;;5111491;28;20031;-78
2022/08/10 04:20:17;;;;;;;19.83;17.45;;;;;;;;;;5112675;28;20034;-78
2022/08/10 04:22:44;;;;;;;15.55;14.10;;;;;;;;;;5112437;28;20031;-79
2022/08/10 04:25:12;;;;;;;15.05;13.82;;;;;;;;;;5111263;28;20031;-78
2022/08/10 04:27:38;;;;;;;15.07;13.68;;;;;;;;;;5110986;28;20539;-78
2022/08/10 04:30:05;;;;;;;15.30;13.80;;;;;;;;;;5112266;28;20107;-79
2022/08/10 04:33:01;;;;;;;15.55;14.15;;;;;;;;;;5110755;28;20032;-79
2022/08/10 04:35:29;;;;;;;16.38;14.63;;;;;;;;;;5110970;28;20506;-78
2022/08/10 04:37:56;;;;;;;18.30;16.52;;;;;;;;;;5112672;28;20027;-79
2022/08/10 04:40:22;;;;;;;17.30;15.63;;;;;;;;;;5112114;28;20031;-78
2022/08/10 04:42:48;;;;;;;17.85;16.25;;;;;;;;;;5104854;28;20824;-78
2022/08/10 04:45:15;;;;;;;16.55;15.05;;;;;;;;;;5112177;28;20039;-81
2022/08/10 04:47:41;;;;;;;18.17;16.58;;;;;;;;;;5112239;28;20046;-80
2022/08/10 04:50:07;;;;;;;16.75;15.25;;;;;;;;;;5112513;28;20028;-79
2022/08/10 04:52:33;;;;;;;16.52;14.90;;;;;;;;;;5116323;28;20027;-79
2022/08/10 04:54:59;;;;;;;17.15;15.35;;;;;;;;;;5116662;28;20108;-80
2022/08/10 04:57:26;;;;;;;17.33;15.60;;;;;;;;;;5116456;28;20028;-81
2022/08/10 04:59:52;;;;;;;16.52;14.88;;;;;;;;;;5116668;28;20360;-81
2022/08/10 05:02:18;;;;;;;16.58;15.02;;;;;;;;;;5116540;28;20035;-80
2022/08/10 05:04:45;;;;;;;17.00;15.40;;;;;;;;;;5116972;28;20418;-78
2022/08/10 05:07:12;;;;;;;17.27;15.68;;;;;;;;;;5116473;28;20028;-79
2022/08/10 05:09:38;;;;;;;17.67;15.75;;;;;;;;;;5116452;28;20085;-80
2022/08/10 05:12:05;;;;;;;17.55;15.95;;;;;;;;;;5116552;28;20386;-81
2022/08/10 05:14:31;;;;;;;17.95;16.20;;;;;;;;;;5116110;28;20035;-79
2022/08/10 05:16:57;;;;;;;17.33;15.82;;;;;;;;;;5116220;28;20027;-81
2022/08/10 05:19:23;;;;;;;17.35;15.75;;;;;;;;;;5116345;28;20063;-79
2022/08/10 05:21:49;;;;;;;17.17;15.48;;;;;;;;;;5116340;28;20497;-79
2022/08/10 05:24:15;;;;;;;18.67;16.98;;;;;;;;;;5116205;28;20423;-82
2022/08/10 05:26:41;;;;;;;18.55;16.77;;;;;;;;;;5106248;28;20032;-82
2022/08/10 05:29:07;;;;;;;18.10;16.20;;;;;;;;;;5094969;28;20525;-81
2022/08/10 05:31:34;;;;;;;16.80;15.30;;;;;;;;;;5110303;28;20024;-81
2022/08/10 05:34:00;;;;;;;16.67;15.18;;;;;;;;;;5115400;28;20031;-81
2022/08/10 05:36:26;;;;;;;18.65;16.88;;;;;;;;;;5111366;28;20444;-80
2022/08/10 05:38:53;;;;;;;18.60;16.90;;;;;;;;;;5095010;28;20081;-79
2022/08/10 05:41:20;;;;;;;17.58;15.77;;;;;;;;;;5092899;28;20020;-77
2022/08/10 05:43:46;;;;;;;16.80;15.25;;;;;;;;;;5085222;28;20057;-79
2022/08/10 05:46:13;;;;;;;19.05;17.30;;;;;;;;;;5093675;28;20439;-79
2022/08/10 05:48:40;;;;;;;18.13;16.55;;;;;;;;;;5075298;28;20040;-79
2022/08/10 05:51:06;;;;;;;17.40;15.80;;;;;;;;;;5074870;28;20052;-83
2022/08/10 05:53:33;;;;;;;17.58;15.93;;;;;;;;;;5076386;28;20029;-86
2022/08/10 05:56:00;;;;;;;19.75;17.95;;;;;;;;;;5087317;28;20424;-82
2022/08/10 05:58:26;;;;;;;19.58;17.60;;;;;;;;;;5092930;28;20028;-86
2022/08/10 06:00:54;;;;;;;18.30;16.60;;;;;;;;;;5095231;28;20038;-78
2022/08/10 06:03:24;;;;;;;19.67;17.73;;;;;;;;;;5094244;28;20099;-81
2022/08/10 06:05:53;;;;;;;23.30;20.98;;;;;;;;;;5094851;28;20427;-80
2022/08/10 06:08:22;;;;;;;19.65;17.92;;;;;;;;;;5091355;28;20032;-80
2022/08/10 06:10:50;;;;;;;18.95;17.15;;;;;;;;;;5092563;28;20036;-79
2022/08/10 06:16:03;;;;;;;20.70;18.73;;;;;;;;;;5074972;28;20094;-79
2022/08/10 06:18:30;;;;;;;20.92;19.02;;;;;;;;;;5092818;28;20103;-80
2022/08/10 06:20:56;;;;;;;19.58;17.80;;;;;;;;;;5082161;28;20078;-78
2022/08/10 06:23:23;;;;;;;19.20;17.45;;;;;;;;;;5088500;28;20532;-78
2022/08/10 06:25:49;;;;;;;19.83;18.05;;;;;;;;;;5075605;28;20435;-79
2022/08/10 06:28:16;;;;;;;20.92;18.98;;;;;;;;;;5094370;28;20405;-82
2022/08/10 06:30:43;;;;;;;19.70;17.70;;;;;;;;;;5111839;28;20031;-78
2022/08/10 06:33:09;;;;;;;21.73;19.63;;;;;;;;;;5099825;28;20038;-79
2022/08/10 06:35:36;;;;;;;21.05;19.08;;;;;;;;;;5091967;28;20051;-78
2022/08/10 06:38:03;;;;;;;19.67;17.80;;;;;;;;;;5094288;28;20488;-80
2022/08/10 06:40:34;;;;;;;21.52;19.63;;;;;;;;;;5094098;28;20494;-79
2022/08/10 06:43:01;;;;;;;21.30;19.15;;;;;;;;;;5094221;28;20056;-80
2022/08/10 06:45:31;;;;;;;21.10;19.20;;;;;;;;;;5092729;28;20083;-79
2022/08/10 06:48:01;;;;;;;20.77;18.77;;;;;;;;;;5103111;28;20118;-78
2022/08/10 06:50:38;;;;;;;20.67;18.45;;;;;;;;;;5091564;28;20043;-80
2022/08/10 06:53:11;;;;;;;21.58;19.58;;;;;;;;;;5081719;28;20028;-80
2022/08/10 06:55:39;;;;;;;22.35;20.23;;;;;;;;;;5096754;28;20047;-79
2022/08/10 06:58:05;;;;;;;21.50;19.48;;;;;;;;;;5086931;28;20024;-81
2022/08/10 07:00:32;;;;;;;20.17;18.48;;;;;;;;;;5099319;28;20060;-79
2022/08/10 07:03:03;;;;;;;21.00;18.73;;;;;;;;;;5090615;28;20040;-80
2022/08/10 07:05:30;;;;;;;20.63;18.52;;;;;;;;;;5083994;28;20032;-81
2022/08/10 07:07:57;;;;;;;20.77;18.88;;;;;;;;;;5100794;28;20458;-78
2022/08/10 07:10:25;;;;;;;19.98;18.08;;;;;;;;;;5113206;28;20038;-82
2022/08/10 07:12:55;;;;;;;19.20;17.50;;;;;;;;;;5114190;28;20023;-82
2022/08/10 07:15:22;;;;;;;20.23;18.35;;;;;;;;;;5092589;28;20032;-82
2022/08/10 07:17:48;;;;;;;33.83;23.30;;;;;;;;;;5094626;28;20024;-78
2022/08/10 07:20:18;;;;;;;20.20;18.30;;;;;;;;;;5100962;28;20073;-79
2022/08/10 07:22:46;;;;;;;20.35;18.52;;;;;;;;;;5104190;28;20069;-77
2022/08/10 07:25:14;;;;;;;20.23;18.17;;;;;;;;;;5100049;28;20063;-79
2022/08/10 07:27:41;;;;;;;21.25;19.27;;;;;;;;;;5095284;28;20059;-78
2022/08/10 07:30:07;;;;;;;20.30;18.33;;;;;;;;;;5094798;28;20474;-82
2022/08/10 07:32:34;;;;;;;21.95;19.77;;;;;;;;;;5103094;28;20392;-82
2022/08/10 07:35:00;;;;;;;19.95;18.15;;;;;;;;;;5092200;28;20028;-81
2022/08/10 07:37:28;;;;;;;18.77;16.98;;;;;;;;;;5093115;28;20032;-79
2022/08/10 07:39:55;;;;;;;21.38;19.45;;;;;;;;;;5092975;28;20482;-80
2022/08/10 07:42:22;;;;;;;20.08;18.08;;;;;;;;;;5092042;28;20503;-85
2022/08/10 07:44:51;;;;;;;20.23;18.33;;;;;;;;;;5095718;28;20051;-80
2022/08/10 07:47:23;;;;;;;18.33;16.63;;;;;;;;;;5101381;28;20130;-82
2022/08/10 07:49:51;;;;;;;20.10;18.17;;;;;;;;;;5091106;28;20099;-78
2022/08/10 07:52:17;;;;;;;19.48;17.67;;;;;;;;;;5092339;28;20035;-82
2022/08/10 07:54:45;;;;;;;21.02;19.02;;;;;;;;;;5095020;28;20044;-77
2022/08/10 07:57:18;;;;;;;19.67;17.88;;;;;;;;;;5095446;28;20031;-83
2022/08/10 07:59:55;;;;;;;20.35;18.63;;;;;;;;;;5080981;28;20025;-84
2022/08/10 08:02:29;;;;;;;22.55;20.35;;;;;;;;;;5081731;28;20028;-82
2022/08/10 08:04:58;;;;;;;20.73;18.73;;;;;;;;;;5072750;28;20082;-81
2022/08/10 08:07:25;;;;;;;21.60;19.45;;;;;;;;;;5072263;28;20494;-82
2022/08/10 08:09:52;;;;;;;20.42;18.63;;;;;;;;;;5072007;28;20036;-84
2022/08/10 08:12:18;;;;;;;17.98;16.20;;;;;;;;;;5078652;28;20532;-79
2022/08/10 08:14:44;;;;;;;19.23;17.63;;;;;;;;;;5092101;28;20048;-80
2022/08/10 08:17:11;;;;;;;18.55;16.85;;;;;;;;;;5078592;28;20029;-79
2022/08/10 08:19:38;;;;;;;20.30;18.30;;;;;;;;;;5072292;28;20472;-81
2022/08/10 08:22:05;;;;;;;17.42;15.90;;;;;;;;;;5072193;28;20050;-78
2022/08/10 08:24:32;;;;;;;21.30;19.23;;;;;;;;;;5081758;28;20814;-83
2022/08/10 08:26:59;;;;;;;18.70;16.85;;;;;;;;;;5091172;28;20504;-81
2022/08/10 08:29:25;;;;;;;18.77;17.08;;;;;;;;;;5094862;28;20028;-80
2022/08/10 08:31:52;;;;;;;18.77;16.98;;;;;;;;;;5099451;28;20024;-81
2022/08/10 08:34:19;;;;;;;18.23;16.58;;;;;;;;;;5081679;28;20032;-82
2022/08/10 08:36:45;;;;;;;17.83;16.13;;;;;;;;;;5081643;28;20028;-79
2022/08/10 08:39:12;;;;;;;18.20;16.50;;;;;;;;;;5092162;28;20028;-82
2022/08/10 08:41:49;;;;;;;19.45;17.42;;;;;;;;;;5090761;28;20032;-80
2022/08/10 08:44:34;;;;;;;18.95;17.25;;;;;;;;;;5092193;28;20032;-80
2022/08/10 08:47:20;;;;;;;18.45;16.85;;;;;;;;;;5091835;28;20467;-79
2022/08/10 08:49:46;;;;;;;20.33;18.33;;;;;;;;;;5097030;28;20498;-80
2022/08/10 08:52:12;;;;;;;19.17;17.38;;;;;;;;;;5076789;28;20123;-82
2022/08/10 08:54:57;;;;;;;18.80;17.05;;;;;;;;;;5091554;28;20032;-83
2022/08/10 08:57:23;;;;;;;20.85;18.85;;;;;;;;;;5087543;28;20028;-79
2022/08/10 09:00:12;;;;;;;21.35;19.20;;;;;;;;;;5096138;28;20068;-80
2022/08/10 09:02:56;;;;;;;19.05;17.33;;;;;;;;;;5094726;28;20069;-86
2022/08/10 09:05:28;;;;;;;21.08;19.02;;;;;;;;;;5088550;28;20093;-81
2022/08/10 09:07:57;;;;;;;18.27;16.48;;;;;;;;;;5088373;28;20037;-81
2022/08/10 09:10:42;;;;;;;17.98;16.30;;;;;;;;;;5103601;28;20024;-79
2022/08/10 09:13:25;;;;;;;18.77;17.00;;;;;;;;;;5112515;28;20393;-82
2022/08/10 09:19:13;;;;;;;18.95;17.15;;;;;;;;;;5086697;28;20105;-82
2022/08/10 09:21:47;;;;;;;19.40;17.60;;;;;;;;;;5071816;28;20115;-80
2022/08/10 09:24:13;;;;;;;24.35;22.17;;;;;;;;;;5089895;28;20391;-81
2022/08/10 09:26:49;;;;;;;20.83;19.00;;;;;;;;;;5088401;28;20115;-80
2022/08/10 09:29:18;;;;;;;18.65;16.95;;;;;;;;;;5096343;28;20086;-81
2022/08/10 09:31:46;;;;;;;20.70;18.70;;;;;;;;;;5102093;28;20055;-79
2022/08/10 09:34:32;;;;;;;21.83;19.67;;;;;;;;;;5090976;28;20035;-81
2022/08/10 09:37:05;;;;;;;19.90;18.20;;;;;;;;;;5094304;28;20050;-77
2022/08/10 09:39:50;;;;;;;21.13;19.10;;;;;;;;;;5096177;28;20478;-76
2022/08/10 09:42:22;;;;;;;18.48;16.67;;;;;;;;;;5095307;28;20028;-76
2022/08/10 09:45:08;;;;;;;18.52;16.80;;;;;;;;;;5094929;28;20024;-76
2022/08/10 09:47:43;;;;;;;18.15;16.45;;;;;;;;;;5098203;28;20055;-80
2022/08/10 09:50:28;;;;;;;18.75;16.77;;;;;;;;;;5100144;28;20027;-80
2022/08/10 09:53:13;;;;;;;18.48;16.85;;;;;;;;;;5093570;28;20043;-80
2022/08/10 09:55:47;;;;;;;17.65;16.08;;;;;;;;;;5096294;28;20422;-79
2022/08/10 09:58:32;;;;;;;17.65;16.02;;;;;;;;;;5103871;28;20019;-80
2022/08/10 10:01:02;;;;;;;17.30;15.70;;;;;;;;;;5104696;28;20433;-78
2022/08/10 10:03:47;;;;;;;16.58;14.90;;;;;;;;;;5088079;28;20058;-82
2022/08/10 10:06:16;;;;;;;17.50;14.80;;;;;;;;;;5086415;28;20035;-80
2022/08/10 10:08:45;;;;;;;16.77;14.95;;;;;;;;;;5086115;28;20013;-78
2022/08/10 10:11:11;;;;;;;18.48;14.48;;;;;;;;;;5082745;28;20155;-79
2022/08/10 10:13:56;;;;;;;15.70;14.10;;;;;;;;;;5095825;28;20031;-81
2022/08/10 10:16:41;;;;;;;16.17;14.57;;;;;;;;;;5096345;28;20031;-79
2022/08/10 10:19:14;;;;;;;17.50;16.00;;;;;;;;;;5100072;28;20027;-78
2022/08/10 10:21:49;;;;;;;16.27;14.88;;;;;;;;;;5102165;28;20016;-80
2022/08/10 10:24:15;;;;;;;;;;;;;;;;;;5089011;28;20039;-80
2022/08/10 10:27:00;;;;;;;22.33;20.30;;;;;;;;;;5090460;28;20277;-79
2022/08/10 10:29:44;;;;;;;16.17;14.48;;;;;;;;;;5097450;28;20027;-79
2022/08/10 10:32:20;;;;;;;17.42;15.90;;;;;;;;;;5098346;28;20096;-79
2022/08/10 10:34:49;;;;;;;17.85;16.17;;;;;;;;;;5104389;28;20047;-79
2022/08/10 10:37:17;;;;;;;17.13;15.57;;;;;;;;;;5098280;28;20031;-82
2022/08/10 10:39:44;;;;;;;17.73;16.13;;;;;;;;;;5093831;28;20059;-79
2022/08/10 10:42:16;;;;;;;16.42;14.93;;;;;;;;;;5099842;28;20042;-79
2022/08/10 10:44:42;;;;;;;17.08;15.57;;;;;;;;;;5100646;28;20028;-78
2022/08/10 10:47:27;;;;;;;18.23;16.42;;;;;;;;;;5096048;28;20040;-78
2022/08/10 10:50:02;;;;;;;16.38;14.88;;;;;;;;;;5093023;28;20115;-78
2022/08/10 10:52:31;;;;;;;16.33;14.80;;;;;;;;;;5095842;28;20036;-77
2022/08/10 10:55:09;;;;;;;17.88;16.08;;;;;;;;;;5092128;28;20048;-78
2022/08/10 10:57:54;;;;;;;19.80;17.73;;;;;;;;;;5097679;28;20031;-81
2022/08/10 11:00:24;;;;;;;17.85;16.15;;;;;;;;;;5101879;28;20110;-78
2022/08/10 11:03:19;;;;;;;17.33;15.60;;;;;;;;;;5100266;28;20031;-78
2022/08/10 11:05:51;;;;;;;17.05;15.55;;;;;;;;;;5084853;28;20051;-80
2022/08/10 11:08:24;;;;;;;16.50;14.80;;;;;;;;;;5101560;28;20020;-81
2022/08/10 11:11:10;;;;;;;16.75;15.05;;;;;;;;;;5100725;28;20040;-78
2022/08/10 11:13:40;;;;;;;18.17;16.38;;;;;;;;;;5102557;28;20031;-79
2022/08/10 11:16:26;;;;;;;26.95;20.77;;;;;;;;;;5097401;28;20036;-84
2022/08/10 11:18:58;;;;;;;18.98;16.98;;;;;;;;;;5101456;28;20031;-84
2022/08/10 11:21:33;;;;;;;18.98;17.08;;;;;;;;;;5098237;28;20489;-83
2022/08/10 11:24:16;;;;;;;19.65;17.83;;;;;;;;;;5104131;28;20031;-83
2022/08/10 11:27:01;;;;;;;16.40;14.93;;;;;;;;;;5103713;28;20462;-82
2022/08/10 11:29:33;;;;;;;19.80;17.88;;;;;;;;;;5100196;28;20474;-81
2022/08/10 11:32:06;;;;;;;20.08;18.25;;;;;;;;;;5103235;28;20398;-76
2022/08/10 11:34:46;;;;;;;19.90;17.85;;;;;;;;;;5106290;28;21018;-78
2022/08/10 11:37:30;;;;;;;17.45;15.38;;;;;;;;;;5086216;28;20032;-78
2022/08/10 11:39:58;;;;;;;18.25;15.45;;;;;;;;;;5075883;28;20088;-80
2022/08/10 11:42:32;;;;;;;17.48;15.88;;;;;;;;;;5084329;28;20024;-79
2022/08/10 11:45:03;;;;;;;17.60;16.00;;;;;;;;;;5089037;28;20031;-77
2022/08/10 11:47:29;;;;;;;18.75;16.95;;;;;;;;;;5095984;28;20055;-76
2022/08/10 11:49:58;;;;;;;19.08;17.38;;;;;;;;;;5099493;28;20115;-77
2022/08/10 11:52:36;;;;;;;18.05;16.45;;;;;;;;;;5105138;28;20016;-78
2022/08/10 11:55:09;;;;;;;18.05;16.35;;;;;;;;;;5100485;28;20159;-79
2022/08/10 11:57:36;;;;;;;;;;;;;;;;;;5104376;28;20111;-78
2022/08/10 12:00:04;;;;;;;20.65;18.65;;;;;;;;;;5090530;28;19908;-79
2022/08/10 12:02:35;;;;;;;19.80;18.02;;;;;;;;;;5095980;28;20028;-78
2022/08/10 12:05:06;;;;;;;18.98;17.20;;;;;;;;;;5102394;28;20059;-79
2022/08/10 12:07:32;;;;;;;18.73;16.80;;;;;;;;;;5110439;28;20146;-77
2022/08/10 12:10:00;;;;;;;17.13;15.45;;;;;;;;;;5091980;28;20070;-80
2022/08/10 12:12:28;;;;;;;17.77;16.23;;;;;;;;;;5091526;28;20035;-81
2022/08/10 12:14:54;;;;;;;17.02;15.32;;;;;;;;;;5091705;28;20027;-80
2022/08/10 12:17:26;;;;;;;17.52;15.63;;;;;;;;;;5092129;28;20036;-79
2022/08/10 12:19:58;;;;;;;15.23;13.73;;;;;;;;;;5092000;28;20475;-78
2022/08/10 12:22:29;;;;;;;17.65;15.98;;;;;;;;;;5085517;28;20387;-81
2022/08/10 12:24:57;;;;;;;15.80;14.40;;;;;;;;;;5083207;28;20024;-80
2022/08/10 12:27:29;;;;;;;14.32;12.82;;;;;;;;;;5090471;28;20029;-79
2022/08/10 12:29:58;;;;;;;14.35;13.15;;;;;;;;;;5092536;28;20522;-80
2022/08/10 12:32:43;;;;;;;13.95;12.55;;;;;;;;;;5086684;28;20024;-80
2022/08/10 12:35:12;;;;;;;14.68;13.27;;;;;;;;;;5092146;28;20035;-80
2022/08/10 12:37:44;;;;;;;23.05;20.90;;;;;;;;;;5091920;28;20520;-81
2022/08/10 12:40:29;;;;;;;17.17;14.23;;;;;;;;;;5091750;28;20031;-79
2022/08/10 12:43:14;;;;;;;14.57;13.05;;;;;;;;;;5091446;28;20061;-81
2022/08/10 12:45:40;;;;;;;15.57;14.13;;;;;;;;;;5091627;28;20026;-80
2022/08/10 12:48:24;;;;;;;16.23;14.63;;;;;;;;;;5091829;28;20056;-76
2022/08/10 12:50:55;;;;;;;16.10;14.68;;;;;;;;;;5091614;28;20060;-78
2022/08/10 12:53:41;;;;;;;16.45;14.88;;;;;;;;;;5091961;28;20024;-81
2022/08/10 12:56:07;;;;;;;15.90;14.27;;;;;;;;;;5091395;28;20553;-78
2022/08/10 12:58:34;;;;;;;15.68;14.15;;;;;;;;;;5091004;28;20024;-76
2022/08/10 13:01:04;;;;;;;16.30;14.70;;;;;;;;;;5091133;28;20360;-77
2022/08/10 13:03:31;;;;;;;15.95;14.55;;;;;;;;;;5091997;28;20020;-77
2022/08/10 13:05:58;;;;;;;15.52;14.02;;;;;;;;;;5091292;28;20066;-78
2022/08/10 13:11:11;;;;;;;15.02;13.55;;;;;;;;;;5091239;28;20085;-77
2022/08/10 13:13:38;;;;;;;14.48;13.18;;;;;;;;;;5085911;28;20471;-76
2022/08/10 13:16:05;;;;;;;15.02;13.63;;;;;;;;;;5075484;28;20040;-79
2022/08/10 13:18:34;;;;;;;13.35;12.00;;;;;;;;;;5075724;28;20024;-80
2022/08/10 13:21:04;;;;;;;12.40;11.10;;;;;;;;;;5077626;28;20077;-80
2022/08/10 13:23:32;;;;;;;11.70;10.52;;;;;;;;;;5096027;28;20024;-80
2022/08/10 13:26:00;;;;;;;11.88;10.88;;;;;;;;;;5092985;28;20088;-81
2022/08/10 13:28:46;;;;;;;12.43;11.30;;;;;;;;;;5092008;28;20107;-79
2022/08/10 13:31:14;;;;;;;11.55;10.55;;;;;;;;;;5100025;28;20035;-80
2022/08/10 13:33:43;;;;;;;11.55;10.40;;;;;;;;;;5094639;28;20128;-79
2022/08/10 13:36:10;;;;;;;11.88;10.82;;;;;;;;;;5084086;28;20040;-80
2022/08/10 13:38:37;;;;;;;11.27;10.15;;;;;;;;;;5075462;28;20444;-80
2022/08/10 13:41:04;;;;;;;11.32;10.40;;;;;;;;;;5084624;28;20063;-79
2022/08/10 13:43:30;;;;;;;12.32;11.23;;;;;;;;;;5107803;28;20066;-78
2022/08/10 13:45:57;;;;;;;11.45;10.27;;;;;;;;;;5093583;28;20028;-80
2022/08/10 13:48:24;;;;;;;11.00;10.00;;;;;;;;;;5090287;28;20491;-82
2022/08/10 13:50:52;;;;;;;10.85;8.80;;;;;;;;;;5095163;28;20039;-80
2022/08/10 13:53:18;;;;;;;10.02;9.10;;;;;;;;;;5090621;28;20016;-81
2022/08/10 13:55:46;;;;;;;9.70;8.80;;;;;;;;;;5074819;28;20115;-82
2022/08/10 13:58:14;;;;;;;10.55;9.65;;;;;;;;;;5074726;28;20106;-81
2022/08/10 14:00:40;;;;;;;12.35;11.25;;;;;;;;;;5074877;28;20029;-77
2022/08/10 14:03:17;;;;;;;11.02;10.02;;;;;;;;;;5076584;28;20375;-81
2022/08/10 14:05:50;;;;;;;10.07;9.25;;;;;;;;;;5093904;28;20109;-80
2022/08/10 14:08:18;;;;;;;10.00;9.15;;;;;;;;;;5095285;28;20035;-81
2022/08/10 14:10:45;;;;;;;11.00;9.90;;;;;;;;;;5094513;28;20020;-82
2022/08/10 14:13:13;;;;;;;12.43;11.23;;;;;;;;;;5094993;28;20505;-81
2022/08/10 14:15:39;;;;;;;11.63;10.52;;;;;;;;;;5094976;28;20040;-79
2022/08/10 14:18:07;;;;;;;11.93;10.90;;;;;;;;;;5084376;28;20035;-78
2022/08/10 14:20:34;;;;;;;12.07;10.88;;;;;;;;;;5074860;28;20497;-78
2022/08/10 14:23:04;;;;;;;11.68;10.57;;;;;;;;;;5087648;28;20027;-80
2022/08/10 14:25:32;;;;;;;12.82;11.55;;;;;;;;;;5073938;28;20020;-80
2022/08/10 14:27:59;;;;;;;12.45;11.35;;;;;;;;;;5081548;28;20095;-80
2022/08/10 14:30:26;;;;;;;12.80;11.60;;;;;;;;;;5095019;28;20028;-77
2022/08/10 14:32:52;;;;;;;16.70;12.35;;;;;;;;;;5094410;28;20028;-80
2022/08/10 14:35:20;;;;;;;11.68;10.50;;;;;;;;;;5094746;28;20036;-79
2022/08/10 14:38:04;;;;;;;14.23;11.32;;;;;;;;;;5087648;28;20052;-79
2022/08/10 14:40:36;;;;;;;12.93;11.63;;;;;;;;;;5074237;28;20052;-81
2022/08/10 14:43:22;;;;;;;11.95;10.85;;;;;;;;;;5072639;28;20056;-78
2022/08/10 14:45:54;;;;;;;12.40;11.30;;;;;;;;;;5086978;28;20027;-78
2022/08/10 14:48:22;;;;;;;12.27;10.88;;;;;;;;;;5099419;28;20044;-80